Terminal Aerodrome Forecast
Issued by NWS Wilmington, OH

Current Version | Previous Version | Graphics & Text | Print | Product List | Glossary On
Versions: 1 2 3 4 5 6 7 8 9 10 11 12 13 14 15 16 17 18 19 20 21 22 23 24
000
FTUS41 KILN 220500
TAFCMH
TAF
KCMH 220524Z 2206/2306 30008KT 5SM BR OVC008
      TEMPO 2208/2212 2SM BR OVC004
     FM221500 31007KT P6SM OVC012
     FM222100 34006KT P6SM OVC025=

USA.gov is the U.S. government's official web portal to all federal, state and local government web resources and services.